Aviation Digital Data Service (ADDS)

Output produced by TAFs form (0418 UTC 31 August 2016)
found at http://www.aviationweather.gov/adds/tafs/
 
KMDT 310341Z 3104/3124 VRB03KT P6SM BKN250 
     FM310900 00000KT 5SM BR SCT250 
     FM311500 20003KT P6SM SCT250